Time;durP1;ratioP1;P1;durP2;ratioP2;P2;SDS_P1;SDS_P2;PMS_P1;PMS_P2;Temp;Humidity;BMP_temperature;BMP_pressure;BME280_temperature;BME280_humidity;BME280_pressure;Samples;Min_cycle;Max_cycle;Signal;HPM_P1;HPM_P2
2022/12/01 00:01:04;;;;;;;13.65;9.38;;;19.80;62.50;;;;;;4975427;28;20047;-58
2022/12/01 00:03:30;;;;;;;16.75;10.32;;;19.70;62.40;;;;;;4975365;28;20390;-58
2022/12/01 00:06:02;;;;;;;14.43;9.15;;;19.70;62.40;;;;;;4975625;28;20047;-58
2022/12/01 00:08:28;;;;;;;14.18;9.10;;;19.70;62.40;;;;;;4974651;28;20438;-57
2022/12/01 00:10:53;;;;;;;14.15;9.30;;;19.70;62.40;;;;;;4975157;28;20177;-57
2022/12/01 00:13:19;;;;;;;16.45;10.25;;;19.70;62.40;;;;;;4975529;28;20129;-57
2022/12/01 00:15:44;;;;;;;15.65;10.05;;;19.70;62.40;;;;;;4975297;28;20042;-57
2022/12/01 00:18:10;;;;;;;14.98;9.73;;;19.70;62.40;;;;;;4975000;28;20039;-57
2022/12/01 00:20:35;;;;;;;15.77;9.82;;;19.70;62.40;;;;;;4973939;28;20068;-57
2022/12/01 00:23:01;;;;;;;14.63;9.30;;;19.70;62.40;;;;;;4974766;28;20181;-57
2022/12/01 00:25:27;;;;;;;16.02;9.90;;;19.60;62.40;;;;;;4974945;28;20098;-58
2022/12/01 00:27:52;;;;;;;16.60;10.68;;;19.70;62.40;;;;;;4975422;28;20125;-58
2022/12/01 00:30:19;;;;;;;16.98;9.82;;;19.60;62.30;;;;;;4974625;28;20420;-57
2022/12/01 00:32:45;;;;;;;13.70;9.32;;;19.60;62.30;;;;;;4974897;28;20035;-57
2022/12/01 00:35:10;;;;;;;15.20;9.48;;;19.60;62.30;;;;;;4974290;28;20372;-58
2022/12/01 00:37:36;;;;;;;16.25;9.32;;;19.60;62.30;;;;;;4974652;28;20130;-57
2022/12/01 00:40:02;;;;;;;14.38;9.73;;;19.60;62.30;;;;;;4974572;28;20086;-57
2022/12/01 00:42:28;;;;;;;16.08;8.77;;;19.60;62.30;;;;;;4974624;28;20061;-57
2022/12/01 00:44:53;;;;;;;15.98;9.65;;;19.60;62.20;;;;;;4974222;28;20469;-58
2022/12/01 00:47:19;;;;;;;15.05;9.82;;;19.50;62.20;;;;;;4974885;28;20046;-57
2022/12/01 00:49:45;;;;;;;13.68;8.77;;;19.60;62.20;;;;;;4974805;28;20039;-57
2022/12/01 00:52:11;;;;;;;15.52;10.10;;;19.60;62.20;;;;;;4972130;28;20043;-58
2022/12/01 00:54:37;;;;;;;13.52;8.85;;;19.50;62.20;;;;;;4974646;28;20474;-57
2022/12/01 00:57:02;;;;;;;13.63;9.45;;;19.50;62.10;;;;;;4974372;28;20050;-57
2022/12/01 00:59:28;;;;;;;15.32;9.95;;;19.50;62.10;;;;;;4974258;28;20595;-57
2022/12/01 01:01:53;;;;;;;15.65;9.77;;;19.50;62.10;;;;;;4974738;28;20375;-57
2022/12/01 01:04:19;;;;;;;14.30;9.68;;;19.50;62.10;;;;;;4973714;28;20058;-58
2022/12/01 01:06:45;;;;;;;16.80;10.07;;;19.50;62.10;;;;;;4974381;28;20047;-57
2022/12/01 01:09:10;;;;;;;13.98;9.30;;;19.50;62.10;;;;;;4974086;28;20043;-58
2022/12/01 01:11:36;;;;;;;14.52;10.27;;;19.50;62.10;;;;;;4973895;28;20119;-57
2022/12/01 01:14:02;;;;;;;15.07;9.57;;;19.50;62.10;;;;;;4973776;28;20490;-58
2022/12/01 01:16:27;;;;;;;14.85;9.45;;;19.50;62.00;;;;;;4974103;28;20050;-57
2022/12/01 01:18:53;;;;;;;14.63;9.60;;;19.40;62.00;;;;;;4973543;28;20054;-58
2022/12/01 01:21:22;;;;;;;14.73;9.23;;;19.40;62.00;;;;;;4973832;28;20497;-58
2022/12/01 01:23:48;;;;;;;13.65;9.45;;;19.40;61.90;;;;;;4972644;28;20090;-58
2022/12/01 01:26:25;;;;;;;14.52;9.43;;;19.40;61.90;;;;;;4973633;28;20043;-57
2022/12/01 01:28:51;;;;;;;16.35;10.20;;;19.40;61.90;;;;;;4974052;28;20152;-58
2022/12/01 01:31:19;;;;;;;14.85;9.90;;;19.40;61.90;;;;;;4974134;28;20042;-58
2022/12/01 01:33:45;;;;;;;15.18;10.43;;;19.40;61.80;;;;;;4973897;28;20070;-57
2022/12/01 01:36:11;;;;;;;16.73;9.75;;;19.40;61.80;;;;;;4973302;28;20490;-57
2022/12/01 01:38:36;;;;;;;14.10;9.38;;;19.30;61.70;;;;;;4973725;28;20039;-57
2022/12/01 01:41:03;;;;;;;16.92;10.65;;;19.40;61.80;;;;;;4972893;28;20059;-57
2022/12/01 01:43:42;;;;;;;14.98;9.10;;;19.30;61.70;;;;;;4972728;28;20117;-57
2022/12/01 01:46:16;;;;;;;14.15;9.13;;;19.40;61.70;;;;;;4973444;28;20057;-58
2022/12/01 01:48:44;;;;;;;16.25;10.07;;;19.40;61.70;;;;;;4973477;28;20061;-57
2022/12/01 01:51:10;;;;;;;14.35;9.88;;;19.40;61.70;;;;;;4972507;28;20113;-57
2022/12/01 01:53:35;;;;;;;13.90;9.15;;;19.40;61.70;;;;;;4973133;28;20074;-58
2022/12/01 01:56:02;;;;;;;18.77;10.80;;;19.30;61.60;;;;;;4972358;28;20050;-57
2022/12/01 01:58:27;;;;;;;14.35;10.40;;;19.30;62.20;;;;;;4972357;28;20066;-57
2022/12/01 02:00:53;;;;;;;16.33;9.82;;;19.30;61.60;;;;;;4971658;28;20490;-57
2022/12/01 02:03:18;;;;;;;17.08;10.73;;;19.30;61.60;;;;;;4973455;28;20086;-57
2022/12/01 02:05:44;;;;;;;16.30;10.38;;;19.30;61.60;;;;;;4972705;28;20390;-58
2022/12/01 02:08:11;;;;;;;16.77;10.20;;;19.30;61.60;;;;;;4971642;28;20449;-58
2022/12/01 02:10:57;;;;;;;16.38;10.00;;;19.30;61.50;;;;;;4973453;28;20047;-57
2022/12/01 02:13:34;;;;;;;16.63;10.50;;;19.30;61.50;;;;;;4973308;28;20051;-58
2022/12/01 02:16:23;;;;;;;15.98;9.80;;;19.30;61.40;;;;;;4973232;28;20042;-57
2022/12/01 02:18:51;;;;;;;16.67;10.25;;;19.30;61.50;;;;;;4971815;28;20509;-57
2022/12/01 02:21:35;;;;;;;16.45;10.48;;;19.30;61.50;;;;;;4972858;28;20050;-57
2022/12/01 02:24:12;;;;;;;18.13;10.85;;;19.30;61.50;;;;;;4972958;28;20423;-57
2022/12/01 02:27:00;;;;;;;16.95;10.77;;;19.20;61.40;;;;;;4973773;28;20109;-58
2022/12/01 02:29:47;;;;;;;17.92;11.18;;;19.20;61.40;;;;;;4971427;28;20043;-57
2022/12/01 02:32:26;;;;;;;16.40;10.32;;;19.20;61.50;;;;;;4973005;28;20105;-57
2022/12/01 02:34:59;;;;;;;17.25;10.70;;;19.20;61.40;;;;;;4972209;28;20047;-57
2022/12/01 02:38:01;;;;;;;17.77;10.85;;;19.20;61.40;;;;;;4971441;28;20035;-57
2022/12/01 02:41:05;;;;;;;17.40;10.57;;;19.20;61.30;;;;;;4972614;28;20051;-57
2022/12/01 02:43:32;;;;;;;18.23;10.52;;;19.20;61.30;;;;;;4971974;28;20506;-57
2022/12/01 02:46:14;;;;;;;16.55;10.45;;;19.20;61.40;;;;;;4972195;28;20101;-57
2022/12/01 02:48:44;;;;;;;16.73;10.75;;;19.20;61.40;;;;;;4971967;28;20047;-57
2022/12/01 02:51:29;;;;;;;17.02;10.90;;;19.20;61.40;;;;;;4970631;28;20054;-57
2022/12/01 02:53:59;;;;;;;15.13;9.95;;;19.20;61.30;;;;;;4972025;28;20376;-57
2022/12/01 02:56:24;;;;;;;17.77;11.27;;;19.20;61.30;;;;;;4955988;28;20087;-57
2022/12/01 02:58:50;;;;;;;18.48;10.82;;;19.10;61.30;;;;;;4975203;28;20083;-57
2022/12/01 03:01:51;;;;;;;19.20;11.45;;;19.10;61.30;;;;;;4976699;28;20191;-57
2022/12/01 03:04:48;;;;;;;17.08;10.48;;;19.10;61.20;;;;;;4976159;28;20211;-57
2022/12/01 03:07:43;;;;;;;17.58;11.27;;;19.10;61.20;;;;;;4975491;28;20050;-57
2022/12/01 03:10:26;;;;;;;17.42;10.85;;;19.10;61.20;;;;;;4975251;28;20047;-57
2022/12/01 03:13:09;;;;;;;18.55;11.65;;;19.10;61.20;;;;;;4976103;28;20129;-57
2022/12/01 03:15:47;;;;;;;19.42;11.32;;;19.10;61.20;;;;;;4975558;28;20053;-57
2022/12/01 03:18:25;;;;;;;18.10;11.07;;;19.10;61.30;;;;;;4959459;28;20042;-57
2022/12/01 03:21:11;;;;;;;17.13;10.73;;;19.10;61.30;;;;;;4974924;28;20522;-57
2022/12/01 03:23:44;;;;;;;18.58;11.15;;;19.10;61.20;;;;;;4975092;28;20049;-57
2022/12/01 03:26:11;;;;;;;19.75;11.40;;;19.00;61.30;;;;;;4975644;28;20130;-57
2022/12/01 03:28:40;;;;;;;19.75;11.40;;;19.00;61.20;;;;;;4975410;28;20043;-57
2022/12/01 03:31:07;;;;;;;;;;;19.00;61.20;;;;;;4975633;28;20038;-57
2022/12/01 03:33:34;;;;;;;19.25;11.27;;;19.00;61.20;;;;;;4974452;28;20019;-57
2022/12/01 03:36:09;;;;;;;19.63;11.27;;;19.00;61.30;;;;;;4975437;28;20097;-57
2022/12/01 03:38:35;;;;;;;19.38;11.95;;;19.00;61.20;;;;;;4975173;28;20478;-57
2022/12/01 03:41:24;;;;;;;19.60;12.23;;;19.00;61.20;;;;;;4973857;28;20055;-57
2022/12/01 03:44:05;;;;;;;21.77;11.68;;;19.00;61.10;;;;;;4969826;28;20117;-57
2022/12/01 03:46:40;;;;;;;19.60;10.98;;;19.00;61.20;;;;;;4974229;28;20063;-57
2022/12/01 03:49:07;;;;;;;18.90;11.38;;;19.00;61.20;;;;;;4975861;28;20397;-57
2022/12/01 03:51:54;;;;;;;18.55;11.73;;;19.00;61.20;;;;;;4974681;28;20045;-57
2022/12/01 03:54:44;;;;;;;18.10;11.30;;;19.00;61.10;;;;;;4974959;28;20054;-57
2022/12/01 03:57:10;;;;;;;18.02;10.73;;;19.10;61.20;;;;;;4974705;28;20114;-57
2022/12/01 03:59:36;;;;;;;15.30;10.52;;;19.10;61.10;;;;;;4976175;28;20120;-57
2022/12/01 04:02:02;;;;;;;17.20;10.98;;;19.10;61.10;;;;;;4957768;28;20042;-57
2022/12/01 04:04:27;;;;;;;18.35;10.73;;;19.10;61.10;;;;;;4975683;28;20045;-57
2022/12/01 04:06:53;;;;;;;17.65;11.38;;;19.10;61.10;;;;;;4975339;28;20050;-58
2022/12/01 04:09:18;;;;;;;18.52;11.18;;;19.10;61.10;;;;;;4974133;28;20047;-57
2022/12/01 04:14:29;;;;;;;18.13;11.25;;;19.20;61.10;;;;;;4975025;28;20058;-57
2022/12/01 04:16:54;;;;;;;19.33;11.73;;;19.20;61.10;;;;;;4975418;28;20038;-57
2022/12/01 04:19:20;;;;;;;20.13;11.60;;;19.20;61.00;;;;;;4975423;28;20557;-57
2022/12/01 04:21:45;;;;;;;17.42;11.02;;;19.20;61.00;;;;;;4973601;28;20049;-57
2022/12/01 04:24:12;;;;;;;18.67;10.90;;;19.30;61.00;;;;;;4974702;28;20042;-57
2022/12/01 04:26:37;;;;;;;18.70;11.18;;;19.30;61.00;;;;;;4975166;28;20558;-57
2022/12/01 04:29:05;;;;;;;17.55;10.57;;;19.30;61.00;;;;;;4974692;28;20050;-57
2022/12/01 04:31:30;;;;;;;19.60;11.60;;;19.30;60.90;;;;;;4974873;28;20086;-57
2022/12/01 04:33:56;;;;;;;17.75;11.10;;;19.30;61.00;;;;;;4975415;28;20066;-56
2022/12/01 04:36:23;;;;;;;18.73;11.68;;;19.30;60.90;;;;;;4974394;28;20054;-57
2022/12/01 04:38:48;;;;;;;18.00;11.20;;;19.30;60.90;;;;;;4974995;28;20089;-57
2022/12/01 04:41:14;;;;;;;17.55;11.15;;;19.40;61.00;;;;;;4974653;28;20058;-57
2022/12/01 04:43:40;;;;;;;17.88;11.20;;;19.40;60.90;;;;;;4974171;28;20046;-57
2022/12/01 04:46:05;;;;;;;17.83;11.20;;;19.40;60.90;;;;;;4975050;28;20047;-57
2022/12/01 04:48:32;;;;;;;17.73;10.80;;;19.40;60.80;;;;;;4974824;28;20085;-57
2022/12/01 04:50:58;;;;;;;16.92;10.63;;;19.40;60.80;;;;;;4974125;28;20443;-57
2022/12/01 04:53:23;;;;;;;16.45;10.63;;;19.40;60.80;;;;;;4974348;28;20552;-57
2022/12/01 04:55:49;;;;;;;19.10;10.82;;;19.40;60.80;;;;;;4974962;28;20101;-57
2022/12/01 04:58:14;;;;;;;18.75;11.30;;;19.40;60.80;;;;;;4973940;28;20065;-57
2022/12/01 05:00:40;;;;;;;18.23;11.18;;;19.50;60.80;;;;;;4974724;28;20046;-57
2022/12/01 05:03:05;;;;;;;16.33;10.70;;;19.40;60.80;;;;;;4974006;28;20062;-57
2022/12/01 05:05:31;;;;;;;17.98;11.70;;;19.50;60.80;;;;;;4973545;28;20041;-57
2022/12/01 05:07:59;;;;;;;17.05;10.82;;;19.50;60.80;;;;;;4974142;28;20170;-56
2022/12/01 05:10:25;;;;;;;18.75;10.57;;;19.50;60.70;;;;;;4973350;28;20038;-56
2022/12/01 05:12:51;;;;;;;18.27;10.85;;;19.50;60.70;;;;;;4974335;28;20053;-57
2022/12/01 05:15:16;;;;;;;19.92;11.00;;;19.50;60.70;;;;;;4973912;28;20043;-57
2022/12/01 05:17:42;;;;;;;20.02;11.57;;;19.60;60.80;;;;;;4974052;28;20098;-56
2022/12/01 05:23:02;;;;;;;17.73;10.80;;;19.60;60.70;;;;;;4974121;28;20046;-57
2022/12/01 05:25:27;;;;;;;17.27;10.25;;;19.60;60.70;;;;;;4973171;28;20047;-58
2022/12/01 05:27:53;;;;;;;15.77;10.27;;;19.60;60.70;;;;;;4974212;28;20491;-56
2022/12/01 05:30:19;;;;;;;18.20;11.25;;;19.60;60.60;;;;;;4973929;28;20121;-56
2022/12/01 05:32:44;;;;;;;18.77;12.02;;;19.60;60.60;;;;;;4972030;28;20074;-57
2022/12/01 05:35:10;;;;;;;16.98;10.95;;;19.60;60.60;;;;;;4974070;28;20093;-57
2022/12/01 05:37:35;;;;;;;16.83;10.38;;;19.70;60.60;;;;;;4974250;28;20050;-57
2022/12/01 05:40:01;;;;;;;16.65;10.32;;;19.70;60.60;;;;;;4973294;28;20042;-56
2022/12/01 05:42:26;;;;;;;16.48;10.68;;;19.70;60.60;;;;;;4973227;28;20066;-57
2022/12/01 05:44:52;;;;;;;15.57;9.93;;;19.70;60.50;;;;;;4973799;28;20054;-57
2022/12/01 05:47:17;;;;;;;16.38;10.15;;;19.70;60.60;;;;;;4972988;28;20047;-57
2022/12/01 05:49:43;;;;;;;17.88;10.57;;;19.70;60.50;;;;;;4974057;28;20372;-57
2022/12/01 05:52:08;;;;;;;16.13;9.90;;;19.70;60.50;;;;;;4973731;28;20051;-57
2022/12/01 05:54:34;;;;;;;17.90;11.20;;;19.70;60.50;;;;;;4973194;28;20121;-57
2022/12/01 05:57:00;;;;;;;15.85;9.98;;;19.70;60.50;;;;;;4973800;28;20051;-57
2022/12/01 05:59:26;;;;;;;16.20;9.93;;;19.70;60.50;;;;;;4973110;28;20058;-57
2022/12/01 06:01:52;;;;;;;17.17;10.55;;;19.80;60.50;;;;;;4971955;28;20042;-56
2022/12/01 06:04:17;;;;;;;16.63;9.90;;;19.80;60.50;;;;;;4973375;28;20051;-57
2022/12/01 06:06:43;;;;;;;18.17;10.82;;;19.80;60.50;;;;;;4973056;28;20090;-57
2022/12/01 06:09:09;;;;;;;17.45;10.73;;;19.80;60.50;;;;;;4973088;28;20097;-57
2022/12/01 06:11:34;;;;;;;15.45;10.13;;;19.80;60.50;;;;;;4973700;28;20046;-56
2022/12/01 06:14:00;;;;;;;17.27;10.15;;;19.80;60.40;;;;;;4973301;28;20506;-56
2022/12/01 06:16:25;;;;;;;16.95;9.40;;;19.80;60.40;;;;;;4972748;28;20074;-56
2022/12/01 06:18:51;;;;;;;17.73;10.35;;;19.80;60.40;;;;;;4973455;28;20049;-56
2022/12/01 06:21:16;;;;;;;17.05;10.82;;;19.80;60.40;;;;;;4972730;28;20081;-56
2022/12/01 06:23:42;;;;;;;15.18;10.05;;;19.80;60.40;;;;;;4973027;28;20085;-56
2022/12/01 06:26:08;;;;;;;17.25;11.30;;;19.80;60.40;;;;;;4973521;28;20129;-56
2022/12/01 06:28:33;;;;;;;16.60;10.55;;;19.80;60.30;;;;;;4972675;28;20042;-56
2022/12/01 06:30:59;;;;;;;18.45;10.80;;;19.80;60.30;;;;;;4972981;28;20126;-56
2022/12/01 06:33:24;;;;;;;15.65;9.70;;;19.80;60.30;;;;;;4973715;28;20039;-56
2022/12/01 06:35:59;;;;;;;18.55;10.80;;;19.80;60.30;;;;;;4976605;28;20038;-56
2022/12/01 06:38:25;;;;;;;15.63;10.13;;;19.80;60.30;;;;;;4976789;28;20406;-56
2022/12/01 06:40:50;;;;;;;18.77;11.07;;;19.80;60.30;;;;;;4977178;28;20482;-56
2022/12/01 06:43:16;;;;;;;16.20;10.15;;;19.80;60.30;;;;;;4976640;28;20039;-56
2022/12/01 06:45:41;;;;;;;16.27;10.10;;;19.80;60.30;;;;;;4977416;28;20490;-56
2022/12/01 06:48:08;;;;;;;15.98;10.45;;;19.80;60.40;;;;;;4977088;28;20042;-56
2022/12/01 06:50:33;;;;;;;17.10;10.98;;;19.80;60.40;;;;;;4975905;28;20047;-56
2022/12/01 06:52:59;;;;;;;17.25;10.23;;;19.90;60.40;;;;;;4977146;28;20062;-56
2022/12/01 06:55:24;;;;;;;18.73;11.35;;;19.80;60.40;;;;;;4976677;28;20099;-56
2022/12/01 06:57:50;;;;;;;17.30;10.50;;;19.90;60.50;;;;;;4976528;28;20042;-57
2022/12/01 07:00:16;;;;;;;17.65;10.55;;;19.90;60.50;;;;;;4976567;28;20502;-56
2022/12/01 07:02:41;;;;;;;20.92;11.13;;;19.90;60.60;;;;;;4976337;28;20475;-57
2022/12/01 07:05:07;;;;;;;18.65;11.02;;;19.90;60.60;;;;;;4976513;28;20039;-60
2022/12/01 07:07:35;;;;;;;17.67;11.57;;;19.90;60.60;;;;;;4976760;28;20038;-58
2022/12/01 07:10:01;;;;;;;17.50;10.23;;;19.90;61.30;;;;;;4976429;28;20039;-59
2022/12/01 07:12:30;;;;;;;17.05;10.45;;;19.90;60.70;;;;;;4975833;28;20351;-57
2022/12/01 07:14:56;;;;;;;18.08;10.70;;;19.90;60.70;;;;;;4975260;28;20125;-58
2022/12/01 07:17:22;;;;;;;16.52;9.98;;;20.00;61.50;;;;;;4975583;28;20042;-58
2022/12/01 07:19:48;;;;;;;19.33;10.40;;;19.90;60.90;;;;;;4976168;28;20057;-58
2022/12/01 07:22:13;;;;;;;18.85;10.98;;;19.90;60.90;;;;;;4976308;28;20477;-58
2022/12/01 07:24:39;;;;;;;19.10;11.32;;;19.90;60.90;;;;;;4975824;28;20046;-58
2022/12/01 07:27:04;;;;;;;16.45;9.73;;;20.00;61.00;;;;;;4976068;28;20043;-58
2022/12/01 07:29:30;;;;;;;18.83;10.80;;;20.00;61.00;;;;;;4976118;28;20047;-57
2022/12/01 07:31:55;;;;;;;17.05;10.25;;;20.00;61.10;;;;;;4975754;28;20397;-57
2022/12/01 07:34:21;;;;;;;17.85;10.57;;;20.00;61.10;;;;;;4983055;28;20513;-57
2022/12/01 07:36:46;;;;;;;16.65;9.77;;;20.00;61.20;;;;;;4985373;28;20479;-58
2022/12/01 07:39:12;;;;;;;16.38;10.10;;;20.00;61.30;;;;;;4983434;28;20030;-57
2022/12/01 07:41:38;;;;;;;17.38;10.68;;;20.00;61.40;;;;;;4976179;28;20461;-57
2022/12/01 07:44:03;;;;;;;16.40;10.70;;;20.00;61.40;;;;;;4976203;28;20043;-57
2022/12/01 07:46:29;;;;;;;16.05;10.10;;;20.00;61.50;;;;;;4974965;28;20047;-58
2022/12/01 07:48:54;;;;;;;17.27;9.75;;;20.00;61.70;;;;;;4975814;28;20054;-57
2022/12/01 07:51:21;;;;;;;14.70;9.38;;;20.00;61.70;;;;;;4975842;28;20043;-57
2022/12/01 07:53:48;;;;;;;15.52;10.57;;;20.00;61.70;;;;;;4975205;28;20622;-57
2022/12/01 07:56:13;;;;;;;16.13;10.30;;;20.00;61.90;;;;;;4975743;28;20129;-57
2022/12/01 07:58:39;;;;;;;16.98;10.60;;;20.10;61.90;;;;;;4976123;28;20130;-58
2022/12/01 08:01:09;;;;;;;16.30;10.40;;;20.00;61.90;;;;;;4975204;28;20041;-58
2022/12/01 08:03:35;;;;;;;17.50;9.77;;;20.00;62.00;;;;;;4975803;28;20517;-58
2022/12/01 08:06:00;;;;;;;14.77;10.10;;;20.10;62.00;;;;;;4975229;28;20047;-57
2022/12/01 08:08:26;;;;;;;17.42;10.43;;;20.10;61.90;;;;;;4975260;28;20038;-58
2022/12/01 08:10:52;;;;;;;17.30;10.45;;;20.10;61.90;;;;;;4975692;28;20499;-58
2022/12/01 08:13:18;;;;;;;15.88;10.23;;;20.10;61.80;;;;;;4974925;28;20427;-57
2022/12/01 08:15:43;;;;;;;15.95;10.77;;;20.10;61.90;;;;;;4975378;28;20047;-57
2022/12/01 08:18:09;;;;;;;15.77;10.10;;;20.10;61.90;;;;;;4974983;28;20050;-57
2022/12/01 08:20:34;;;;;;;14.50;10.15;;;20.00;61.90;;;;;;4974954;28;20058;-57
2022/12/01 08:23:00;;;;;;;17.17;10.25;;;20.00;62.00;;;;;;4975209;28;20054;-57
2022/12/01 08:25:29;;;;;;;17.45;10.65;;;20.10;62.10;;;;;;4975245;28;20050;-57
2022/12/01 08:27:55;;;;;;;17.15;10.68;;;20.10;62.10;;;;;;4974548;28;20424;-56
2022/12/01 08:30:21;;;;;;;18.27;10.55;;;20.10;62.10;;;;;;4974742;28;20049;-57
2022/12/01 08:32:46;;;;;;;16.15;10.48;;;20.10;62.20;;;;;;4974989;28;20046;-57
2022/12/01 08:35:12;;;;;;;17.15;10.00;;;20.10;62.20;;;;;;4973962;28;20058;-57
2022/12/01 08:37:37;;;;;;;15.73;10.13;;;20.10;62.20;;;;;;4975105;28;20046;-57
2022/12/01 08:40:03;;;;;;;15.93;10.35;;;20.10;62.20;;;;;;4974719;28;20047;-57
2022/12/01 08:42:29;;;;;;;15.52;9.95;;;20.10;62.30;;;;;;4973606;28;20060;-57
2022/12/01 08:44:55;;;;;;;16.20;10.00;;;20.10;62.30;;;;;;4974689;28;20043;-57
2022/12/01 08:47:20;;;;;;;15.00;10.50;;;20.10;62.30;;;;;;4973329;28;20054;-57
2022/12/01 08:49:46;;;;;;;18.95;10.68;;;20.20;62.30;;;;;;4974193;28;20050;-57
2022/12/01 08:52:11;;;;;;;16.92;10.20;;;20.20;62.40;;;;;;4974632;28;20050;-57
2022/12/01 08:54:37;;;;;;;15.90;10.38;;;20.10;62.30;;;;;;4974642;28;20050;-57
2022/12/01 08:57:02;;;;;;;16.98;9.95;;;20.10;62.30;;;;;;4973526;28;20047;-57
2022/12/01 08:59:28;;;;;;;16.00;10.70;;;20.20;62.40;;;;;;4974278;28;20185;-56
2022/12/01 09:01:54;;;;;;;15.27;9.93;;;20.20;62.50;;;;;;4974541;28;20189;-57
2022/12/01 09:04:20;;;;;;;17.92;10.20;;;20.20;62.40;;;;;;4973361;28;20047;-57
2022/12/01 09:06:47;;;;;;;16.40;10.60;;;20.20;62.40;;;;;;4974312;28;20390;-57
2022/12/01 09:09:26;;;;;;;15.95;10.55;;;20.20;62.40;;;;;;4973972;28;20125;-57
2022/12/01 09:11:51;;;;;;;17.30;10.20;;;20.20;62.40;;;;;;4976452;28;20046;-56
2022/12/01 09:14:17;;;;;;;15.23;9.75;;;20.20;62.40;;;;;;4973674;28;20130;-57
2022/12/01 09:16:45;;;;;;;17.00;10.63;;;20.20;62.40;;;;;;4973186;28;20520;-57
2022/12/01 09:19:10;;;;;;;16.40;11.00;;;20.20;62.50;;;;;;4971636;28;20046;-57
2022/12/01 09:21:36;;;;;;;17.05;10.45;;;20.20;62.50;;;;;;4965858;28;20184;-58
2022/12/01 09:24:02;;;;;;;16.35;10.38;;;20.20;62.50;;;;;;4958180;28;20063;-58
2022/12/01 09:26:28;;;;;;;16.58;10.32;;;20.20;62.40;;;;;;4972405;28;20051;-57
2022/12/01 09:28:55;;;;;;;17.10;10.82;;;20.20;62.40;;;;;;4957539;28;20035;-58
2022/12/01 09:31:22;;;;;;;17.10;10.63;;;20.30;62.50;;;;;;4966444;28;20246;-59
2022/12/01 09:33:48;;;;;;;15.85;10.52;;;20.20;62.50;;;;;;4973205;28;20034;-59
2022/12/01 09:36:13;;;;;;;18.27;11.32;;;20.20;62.50;;;;;;4972979;28;20039;-58
2022/12/01 09:38:39;;;;;;;20.08;10.32;;;20.20;62.40;;;;;;4972362;28;20039;-58
2022/12/01 09:41:08;;;;;;;15.18;10.25;;;20.20;62.40;;;;;;4973511;28;20039;-58
2022/12/01 09:43:40;;;;;;;16.85;10.57;;;20.20;62.40;;;;;;4955882;28;20510;-58
2022/12/01 09:46:08;;;;;;;17.65;11.43;;;20.20;62.40;;;;;;4971378;28;20117;-59
2022/12/01 09:48:41;;;;;;;17.90;10.82;;;20.20;62.50;;;;;;4972082;28;20042;-59
2022/12/01 09:51:20;;;;;;;16.08;10.40;;;20.20;62.40;;;;;;4973486;28;20042;-59
2022/12/01 09:53:51;;;;;;;17.58;10.70;;;20.20;62.40;;;;;;4970227;28;20405;-58
2022/12/01 09:56:18;;;;;;;16.60;11.02;;;20.20;62.30;;;;;;4971070;28;20043;-59
2022/12/01 09:58:44;;;;;;;17.02;10.60;;;20.20;62.40;;;;;;4972392;28;20129;-58
2022/12/01 10:01:16;;;;;;;18.40;11.30;;;20.20;62.30;;;;;;4972192;28;20121;-58
2022/12/01 10:03:53;;;;;;;17.23;10.73;;;20.20;62.30;;;;;;4972601;28;20545;-59
2022/12/01 10:06:27;;;;;;;15.93;10.48;;;20.20;62.30;;;;;;4971427;28;20051;-59
2022/12/01 10:08:59;;;;;;;15.75;10.05;;;20.20;62.40;;;;;;4972545;28;20525;-59
2022/12/01 10:11:32;;;;;;;16.08;10.65;;;20.20;62.40;;;;;;4972399;28;20509;-59
2022/12/01 10:13:58;;;;;;;18.77;10.85;;;20.20;62.30;;;;;;4973310;28;20061;-58
2022/12/01 10:16:34;;;;;;;18.00;10.63;;;20.20;62.30;;;;;;4972582;28;20113;-58
2022/12/01 10:19:07;;;;;;;18.60;10.60;;;20.10;62.30;;;;;;4972655;28;20486;-58
2022/12/01 10:22:09;;;;;;;18.17;11.13;;;20.20;62.20;;;;;;4971660;28;20093;-58
2022/12/01 10:24:44;;;;;;;16.55;10.98;;;20.20;62.10;;;;;;4972410;28;20434;-58
2022/12/01 10:27:38;;;;;;;18.52;10.55;;;20.20;62.00;;;;;;4973208;28;20049;-58
2022/12/01 10:30:05;;;;;;;17.80;11.15;;;20.20;61.60;;;;;;4982435;28;20038;-57
2022/12/01 10:32:50;;;;;;;18.15;11.25;;;20.10;61.70;;;;;;4983735;28;20074;-58
2022/12/01 10:35:17;;;;;;;18.17;10.95;;;20.20;61.70;;;;;;4988174;28;20058;-59
2022/12/01 10:37:43;;;;;;;18.65;11.60;;;20.20;61.80;;;;;;4991207;28;20049;-59
2022/12/01 10:40:18;;;;;;;18.75;10.68;;;20.10;61.90;;;;;;4982422;28;20047;-59
2022/12/01 10:42:45;;;;;;;17.30;10.40;;;20.10;61.90;;;;;;4991897;28;20065;-58
2022/12/01 10:45:25;;;;;;;18.63;10.97;;;20.10;62.10;;;;;;4992530;28;20393;-58
2022/12/01 10:48:06;;;;;;;16.63;10.98;;;20.10;62.10;;;;;;4984330;28;20301;-58
2022/12/01 10:50:33;;;;;;;18.52;10.80;;;20.10;62.10;;;;;;4992574;28;20054;-59
2022/12/01 10:52:58;;;;;;;16.30;11.20;;;20.20;62.20;;;;;;4992960;28;20090;-58
2022/12/01 10:55:42;;;;;;;17.60;10.73;;;20.20;62.20;;;;;;4991795;28;20077;-59
2022/12/01 10:58:13;;;;;;;16.17;10.18;;;20.20;62.30;;;;;;4991692;28;20126;-59
2022/12/01 11:00:40;;;;;;;16.95;10.32;;;20.20;62.20;;;;;;4992120;28;20053;-59
2022/12/01 11:03:13;;;;;;;17.85;10.20;;;20.20;62.20;;;;;;4990617;28;20051;-59
2022/12/01 11:05:40;;;;;;;16.30;10.60;;;20.20;62.20;;;;;;4974993;28;20081;-59
2022/12/01 11:08:05;;;;;;;17.23;11.05;;;20.20;62.90;;;;;;4991424;28;20049;-59
2022/12/01 11:10:32;;;;;;;17.90;10.15;;;20.20;62.30;;;;;;4991430;28;20034;-59
2022/12/01 11:13:01;;;;;;;17.25;10.80;;;20.20;62.40;;;;;;4990946;28;20054;-59
2022/12/01 11:15:29;;;;;;;20.35;11.05;;;20.20;62.40;;;;;;4990549;28;20502;-59
2022/12/01 11:17:59;;;;;;;17.83;10.27;;;20.30;62.50;;;;;;4991859;28;20120;-58
2022/12/01 11:20:36;;;;;;;18.40;10.50;;;20.20;62.40;;;;;;4996017;28;20053;-59
2022/12/01 11:23:28;;;;;;;20.65;11.75;;;20.20;62.30;;;;;;4994535;28;20042;-59
2022/12/01 11:26:06;;;;;;;18.02;11.43;;;20.20;62.20;;;;;;4995946;28;20557;-59
2022/12/01 11:28:32;;;;;;;18.80;10.95;;;20.20;62.10;;;;;;4994887;28;20038;-59
2022/12/01 11:31:00;;;;;;;19.77;11.68;;;20.10;62.10;;;;;;4994240;28;20498;-59
2022/12/01 11:33:26;;;;;;;18.77;11.77;;;20.10;62.10;;;;;;4994775;28;20054;-59
2022/12/01 11:35:51;;;;;;;19.00;11.32;;;20.20;62.10;;;;;;4995840;28;20113;-59
2022/12/01 11:38:22;;;;;;;19.83;12.60;;;20.20;62.20;;;;;;4977317;28;20783;-58
2022/12/01 11:40:55;;;;;;;17.70;11.68;;;20.10;62.10;;;;;;4995587;28;20058;-59
2022/12/01 11:43:39;;;;;;;19.67;11.32;;;20.10;62.00;;;;;;4993170;28;20115;-58
2022/12/01 11:46:06;;;;;;;18.55;11.50;;;20.10;62.00;;;;;;4993080;28;20049;-59
2022/12/01 11:48:35;;;;;;;22.45;12.45;;;20.10;62.00;;;;;;4993387;28;20056;-59
2022/12/01 11:51:08;;;;;;;21.20;12.50;;;20.10;62.10;;;;;;4994358;28;20092;-59
2022/12/01 11:53:33;;;;;;;21.23;13.05;;;20.10;62.10;;;;;;4991829;28;20046;-59
2022/12/01 11:56:19;;;;;;;20.55;12.65;;;20.00;62.10;;;;;;4995305;28;20092;-59
2022/12/01 11:58:46;;;;;;;19.98;12.52;;;20.10;62.20;;;;;;4994988;28;20108;-59
2022/12/01 12:01:40;;;;;;;19.52;11.55;;;20.00;62.20;;;;;;4977157;28;20042;-60
2022/12/01 12:04:30;;;;;;;19.23;11.90;;;20.10;62.30;;;;;;4995839;28;20046;-59
2022/12/01 12:07:24;;;;;;;20.60;11.55;;;20.00;62.30;;;;;;4994927;28;20042;-59
2022/12/01 12:09:58;;;;;;;19.98;12.23;;;20.10;62.30;;;;;;4994679;28;20046;-60
2022/12/01 12:12:37;;;;;;;18.95;11.48;;;20.00;62.30;;;;;;4994689;28;20848;-60
2022/12/01 12:15:22;;;;;;;18.50;11.52;;;20.10;62.20;;;;;;4994623;28;20062;-60
2022/12/01 12:18:01;;;;;;;21.02;12.32;;;20.00;62.20;;;;;;4994068;28;20100;-60
2022/12/01 12:20:35;;;;;;;20.15;12.10;;;20.00;62.10;;;;;;4993664;28;20050;-60
2022/12/01 12:23:06;;;;;;;23.27;12.88;;;20.00;62.30;;;;;;4995579;28;20046;-60
2022/12/01 12:26:12;;;;;;;19.42;11.73;;;20.00;62.30;;;;;;4993625;28;20085;-60
2022/12/01 12:29:03;;;;;;;19.25;11.50;;;20.00;62.30;;;;;;4994105;28;20494;-60
2022/12/01 12:31:43;;;;;;;18.67;12.32;;;20.00;62.30;;;;;;4992740;28;20070;-59
2022/12/01 12:34:21;;;;;;;20.65;12.05;;;20.00;62.60;;;;;;4993162;28;20128;-59
2022/12/01 12:37:11;;;;;;;19.63;12.13;;;20.00;62.20;;;;;;4995392;28;20058;-59
2022/12/01 12:39:44;;;;;;;18.00;11.85;;;20.00;62.20;;;;;;4994998;28;20053;-59
2022/12/01 12:42:33;;;;;;;19.40;12.27;;;20.00;62.10;;;;;;4992848;28;20057;-59
2022/12/01 12:45:14;;;;;;;17.73;11.70;;;20.00;62.00;;;;;;4994285;28;20042;-59
2022/12/01 12:47:48;;;;;;;18.17;11.57;;;20.00;62.00;;;;;;4976947;28;20054;-59